Time;durP1;ratioP1;P1;durP2;ratioP2;P2;SDS_P1;SDS_P2;PMS_P1;PMS_P2;Temp;Humidity;BMP_temperature;BMP_pressure;BME280_temperature;BME280_humidity;BME280_pressure;Samples;Min_cycle;Max_cycle;Signal;HPM_P1;HPM_P2
2024/04/21 00:00:54;;;;;;;4.83;3.70;;;4.10;99.90;;;;;;6373838;22;20293;-85
2024/04/21 00:03:23;;;;;;;4.43;3.90;;;4.10;99.90;;;;;;6374078;22;20226;-86
2024/04/21 00:05:52;;;;;;;5.03;3.90;;;4.20;99.90;;;;;;6331088;22;20229;-88
2024/04/21 00:08:20;;;;;;;5.47;3.63;;;4.30;99.90;;;;;;6372660;22;20268;-86
2024/04/21 00:10:46;;;;;;;5.07;3.57;;;4.30;99.90;;;;;;6374104;22;20293;-86
2024/04/21 00:13:15;;;;;;;5.77;3.67;;;4.40;99.90;;;;;;6331118;22;20336;-86
2024/04/21 00:15:40;;;;;;;3.97;3.57;;;4.30;99.60;;;;;;6373091;22;20792;-86
2024/04/21 00:18:09;;;;;;;4.27;3.60;;;4.40;99.30;;;;;;6374565;22;20229;-86
2024/04/21 00:20:35;;;;;;;4.53;3.60;;;4.40;99.30;;;;;;6373873;22;20283;-86
2024/04/21 00:23:08;;;;;;;4.30;3.50;;;4.30;99.00;;;;;;6373768;22;21054;-86
2024/04/21 00:25:34;;;;;;;4.13;3.70;;;4.20;98.90;;;;;;6333068;22;20755;-86
2024/04/21 00:28:03;;;;;;;4.37;3.97;;;4.20;99.20;;;;;;6291338;22;20279;-86
2024/04/21 00:30:29;;;;;;;5.03;4.10;;;4.10;99.50;;;;;;6331441;22;20688;-85
2024/04/21 00:32:57;;;;;;;4.67;4.17;;;4.00;99.90;;;;;;6373333;22;20285;-86
2024/04/21 00:35:24;;;;;;;4.37;3.90;;;4.00;99.90;;;;;;6375340;22;20315;-86
2024/04/21 00:37:53;;;;;;;4.80;4.10;;;3.90;99.90;;;;;;6373796;22;20233;-86
2024/04/21 00:40:22;;;;;;;5.63;4.40;;;3.90;99.90;;;;;;6332930;22;20593;-86
2024/04/21 00:43:00;;;;;;;5.40;4.20;;;3.90;99.90;;;;;;6373275;22;20229;-86
2024/04/21 00:45:27;;;;;;;5.07;4.40;;;3.90;99.90;;;;;;6373591;22;20273;-86
2024/04/21 00:47:56;;;;;;;5.73;4.20;;;3.90;99.90;;;;;;6373742;22;20281;-86
2024/04/21 00:50:23;;;;;;;4.40;3.90;;;3.90;99.90;;;;;;6373196;22;20237;-86
2024/04/21 00:52:51;;;;;;;5.63;4.33;;;3.90;99.90;;;;;;6373776;22;20225;-86
2024/04/21 00:55:18;;;;;;;6.03;4.40;;;3.90;99.90;;;;;;6373647;22;20347;-86
2024/04/21 00:57:49;;;;;;;4.97;4.23;;;3.90;99.90;;;;;;6373693;22;20221;-86
2024/04/21 01:00:17;;;;;;;5.43;4.60;;;3.90;99.90;;;;;;6374615;22;20331;-86
2024/04/21 01:02:46;;;;;;;5.47;4.33;;;3.90;99.90;;;;;;6375513;22;20229;-85
2024/04/21 01:05:12;;;;;;;5.63;4.23;;;4.00;99.90;;;;;;6333570;22;20237;-86
2024/04/21 01:07:40;;;;;;;6.23;4.17;;;4.00;99.90;;;;;;6375874;22;20259;-86
2024/04/21 01:10:07;;;;;;;5.37;4.67;;;4.00;99.90;;;;;;6376056;22;20656;-86
2024/04/21 01:12:42;;;;;;;5.50;4.57;;;4.00;99.90;;;;;;6375255;22;20316;-86
2024/04/21 01:15:11;;;;;;;6.57;4.43;;;4.00;99.90;;;;;;6376011;22;20343;-85
2024/04/21 01:17:40;;;;;;;5.07;4.57;;;4.00;99.90;;;;;;6333021;22;20226;-85
2024/04/21 01:20:09;;;;;;;5.47;4.50;;;4.00;99.90;;;;;;6375609;22;20264;-86
2024/04/21 01:22:43;;;;;;;4.90;4.40;;;4.00;99.90;;;;;;6332948;22;20226;-85
2024/04/21 01:25:09;;;;;;;5.37;4.10;;;4.00;99.90;;;;;;6375436;22;20689;-85
2024/04/21 01:27:37;;;;;;;4.67;3.90;;;4.00;99.90;;;;;;6293272;22;20234;-85
2024/04/21 01:30:04;;;;;;;4.57;4.10;;;4.10;99.90;;;;;;6374691;22;20225;-85
2024/04/21 01:32:32;;;;;;;4.70;4.20;;;4.00;99.90;;;;;;6332458;22;20810;-85
2024/04/21 01:34:58;;;;;;;4.87;4.37;;;4.10;99.90;;;;;;6332792;22;20229;-86
2024/04/21 01:37:28;;;;;;;4.90;4.40;;;4.00;99.90;;;;;;6375989;22;20614;-85
2024/04/21 01:39:56;;;;;;;5.10;4.40;;;4.10;99.90;;;;;;6375494;22;20229;-85
2024/04/21 01:42:25;;;;;;;4.40;4.00;;;4.10;99.90;;;;;;6375820;22;20256;-85
2024/04/21 01:44:54;;;;;;;5.03;4.47;;;4.10;99.90;;;;;;6332199;22;20264;-86
2024/04/21 01:47:19;;;;;;;5.30;4.43;;;4.20;99.90;;;;;;6375768;22;20346;-86
2024/04/21 01:49:48;;;;;;;5.47;4.97;;;4.10;99.90;;;;;;6374655;22;20252;-86
2024/04/21 01:52:14;;;;;;;5.77;4.70;;;4.20;99.90;;;;;;6373185;22;20276;-85
2024/04/21 01:54:42;;;;;;;6.00;4.67;;;4.10;99.90;;;;;;6375242;22;20234;-86
2024/04/21 01:57:11;;;;;;;5.57;4.80;;;4.10;99.90;;;;;;6333391;22;20225;-86
2024/04/21 01:59:40;;;;;;;5.43;4.83;;;4.10;99.90;;;;;;6374802;22;20640;-86
2024/04/21 02:02:05;;;;;;;6.03;5.40;;;4.10;99.90;;;;;;6332338;22;20221;-85
2024/04/21 02:04:34;;;;;;;6.00;5.40;;;4.20;99.90;;;;;;6374786;22;20268;-85
2024/04/21 02:07:00;;;;;;;5.83;5.10;;;4.10;99.90;;;;;;6374578;22;20222;-86
2024/04/21 02:09:29;;;;;;;5.23;4.73;;;4.10;99.90;;;;;;6331537;22;20328;-86
2024/04/21 02:11:54;;;;;;;5.40;4.90;;;4.10;99.90;;;;;;6374060;22;20768;-86
2024/04/21 02:14:26;;;;;;;5.67;4.90;;;4.10;99.90;;;;;;6332721;22;20233;-85
2024/04/21 02:16:51;;;;;;;5.40;4.30;;;4.10;99.90;;;;;;6375692;22;20222;-86
2024/04/21 02:19:20;;;;;;;5.57;4.70;;;4.10;99.90;;;;;;6373987;22;20217;-86
2024/04/21 02:21:46;;;;;;;4.83;4.43;;;4.20;99.90;;;;;;6372079;22;20229;-86
2024/04/21 02:24:15;;;;;;;4.90;4.50;;;4.10;99.90;;;;;;6375007;22;20305;-85
2024/04/21 02:26:41;;;;;;;5.03;4.53;;;4.10;99.90;;;;;;6374607;22;20226;-86
2024/04/21 02:29:10;;;;;;;5.10;4.60;;;4.10;99.90;;;;;;6373127;22;20256;-86
2024/04/21 02:31:39;;;;;;;4.87;4.47;;;4.00;99.90;;;;;;6373776;22;20713;-86
2024/04/21 02:34:10;;;;;;;5.27;4.50;;;4.00;99.90;;;;;;6373773;22;20217;-86
2024/04/21 02:36:36;;;;;;;4.67;4.27;;;3.90;99.90;;;;;;6374428;22;20226;-85
2024/04/21 02:39:08;;;;;;;5.20;4.70;;;4.00;99.90;;;;;;6373087;22;20225;-87
2024/04/21 02:41:34;;;;;;;5.30;4.80;;;3.90;99.90;;;;;;6373655;22;20222;-85
2024/04/21 02:44:02;;;;;;;5.63;5.10;;;3.90;99.90;;;;;;6373700;22;20225;-86
2024/04/21 02:46:28;;;;;;;5.73;5.03;;;3.90;99.90;;;;;;6375620;22;20574;-85
2024/04/21 02:49:01;;;;;;;5.73;5.13;;;4.00;99.90;;;;;;6331464;22;20550;-87
2024/04/21 02:51:27;;;;;;;6.03;5.17;;;4.00;99.90;;;;;;6331523;22;21316;-87
2024/04/21 02:53:56;;;;;;;5.50;5.00;;;3.90;99.90;;;;;;6373453;22;20225;-87
2024/04/21 02:56:22;;;;;;;6.43;5.43;;;4.00;99.90;;;;;;6381579;22;20975;-87
2024/04/21 02:58:51;;;;;;;6.23;5.30;;;4.00;99.90;;;;;;6373954;22;20285;-87
2024/04/21 03:01:17;;;;;;;5.87;5.27;;;4.10;99.90;;;;;;6331828;22;20268;-87
2024/04/21 03:03:49;;;;;;;6.47;5.80;;;4.00;99.90;;;;;;6375735;22;20653;-87
2024/04/21 03:06:17;;;;;;;5.60;4.97;;;4.10;99.90;;;;;;6374273;22;20249;-87
2024/04/21 03:08:47;;;;;;;6.10;5.27;;;4.10;99.90;;;;;;6375035;22;20805;-87
2024/04/21 03:11:13;;;;;;;6.70;5.57;;;4.00;99.90;;;;;;6374990;22;20559;-87
2024/04/21 03:13:42;;;;;;;5.60;5.10;;;4.10;99.90;;;;;;6331085;22;20298;-87
2024/04/21 03:16:12;;;;;;;5.87;5.23;;;4.10;99.90;;;;;;6375196;22;20348;-87
2024/04/21 03:18:41;;;;;;;5.77;5.13;;;4.10;99.90;;;;;;6374714;22;20260;-87
2024/04/21 03:21:07;;;;;;;6.70;5.30;;;4.00;99.90;;;;;;6375153;22;20382;-89
2024/04/21 03:23:38;;;;;;;5.93;5.30;;;4.00;99.90;;;;;;6374689;22;20237;-87
2024/04/21 03:26:04;;;;;;;7.10;5.50;;;4.00;99.90;;;;;;6374606;22;20221;-87
2024/04/21 03:28:33;;;;;;;5.60;4.83;;;4.00;99.90;;;;;;6331821;22;20275;-87
2024/04/21 03:31:00;;;;;;;5.97;5.17;;;4.10;99.90;;;;;;6373870;22;20302;-87
2024/04/21 03:33:29;;;;;;;5.50;5.00;;;4.20;99.90;;;;;;6331477;22;20226;-87
2024/04/21 03:36:02;;;;;;;5.70;5.20;;;4.20;99.90;;;;;;6375221;22;20281;-87
2024/04/21 03:38:31;;;;;;;6.20;5.20;;;4.10;99.90;;;;;;6374361;22;20267;-87
2024/04/21 03:41:02;;;;;;;6.60;5.57;;;4.10;99.90;;;;;;6375583;22;20225;-87
2024/04/21 03:43:31;;;;;;;5.87;5.27;;;4.10;99.90;;;;;;6369262;22;20222;-87
2024/04/21 03:46:00;;;;;;;5.50;5.00;;;4.10;99.90;;;;;;6332826;22;20356;-87
2024/04/21 03:48:25;;;;;;;5.57;5.07;;;4.00;99.90;;;;;;6374539;22;20217;-87
2024/04/21 03:50:54;;;;;;;5.70;5.20;;;4.00;99.90;;;;;;6374778;22;20332;-87
2024/04/21 03:53:36;;;;;;;6.13;5.20;;;4.00;99.90;;;;;;6372940;22;20327;-87
2024/04/21 03:56:06;;;;;;;6.20;5.00;;;4.10;99.90;;;;;;6372287;22;20229;-87
2024/04/21 03:58:38;;;;;;;5.13;4.67;;;4.10;99.90;;;;;;6373253;22;20233;-87
2024/04/21 04:01:04;;;;;;;5.20;4.70;;;4.20;99.60;;;;;;6373521;22;20324;-86
2024/04/21 04:03:32;;;;;;;5.27;4.73;;;4.30;99.20;;;;;;6373398;22;20221;-85
2024/04/21 04:05:58;;;;;;;5.07;4.53;;;4.20;98.80;;;;;;6375080;22;20817;-86
2024/04/21 04:08:27;;;;;;;4.50;4.10;;;4.20;99.50;;;;;;6374394;22;20233;-86
2024/04/21 04:10:53;;;;;;;4.80;4.30;;;4.20;98.90;;;;;;6333438;22;20221;-86
2024/04/21 04:13:24;;;;;;;5.43;4.80;;;4.10;99.30;;;;;;6374613;22;20268;-85
2024/04/21 04:15:50;;;;;;;5.23;4.73;;;4.10;99.20;;;;;;6331803;22;20225;-85
2024/04/21 04:18:18;;;;;;;4.70;4.30;;;4.10;99.40;;;;;;6373558;22;20267;-86
2024/04/21 04:20:45;;;;;;;6.50;5.00;;;4.10;99.30;;;;;;6375073;22;20225;-86
2024/04/21 04:23:14;;;;;;;7.23;5.03;;;4.10;99.30;;;;;;6374137;22;20221;-86
2024/04/21 04:25:40;;;;;;;5.53;4.67;;;4.10;99.70;;;;;;6374307;22;20724;-86
2024/04/21 04:28:08;;;;;;;5.00;4.50;;;4.10;99.60;;;;;;6374124;22;20328;-86
2024/04/21 04:30:37;;;;;;;5.23;4.73;;;4.20;98.90;;;;;;6375172;22;20779;-86
2024/04/21 04:33:06;;;;;;;5.73;4.43;;;4.20;99.10;;;;;;6331594;22;20272;-86
2024/04/21 04:35:32;;;;;;;5.13;4.73;;;4.20;99.30;;;;;;6332893;22;20260;-86
2024/04/21 04:38:01;;;;;;;5.00;4.50;;;4.30;98.80;;;;;;6376602;22;20225;-86
2024/04/21 04:40:27;;;;;;;5.23;4.53;;;4.30;98.70;;;;;;6376115;22;21038;-87
2024/04/21 04:42:57;;;;;;;4.70;4.30;;;4.30;98.90;;;;;;6375825;22;20237;-85
2024/04/21 04:45:23;;;;;;;5.20;4.70;;;4.40;98.90;;;;;;6375424;22;20534;-86
2024/04/21 04:47:55;;;;;;;5.20;4.70;;;4.40;98.60;;;;;;6376046;22;20229;-86
2024/04/21 04:50:21;;;;;;;5.47;4.97;;;4.40;99.00;;;;;;6335313;22;20237;-86
2024/04/21 04:52:55;;;;;;;5.40;4.90;;;4.50;99.00;;;;;;6375344;22;20237;-86
2024/04/21 04:55:21;;;;;;;5.30;4.80;;;4.40;99.00;;;;;;6376241;22;20259;-86
2024/04/21 04:57:50;;;;;;;5.03;4.53;;;4.40;99.10;;;;;;6376317;22;20229;-86
2024/04/21 05:00:16;;;;;;;5.00;4.20;;;4.50;99.40;;;;;;6375886;22;20642;-85
2024/04/21 05:02:44;;;;;;;5.43;4.93;;;4.50;98.50;;;;;;6333152;22;20226;-86
2024/04/21 05:05:13;;;;;;;5.20;4.70;;;4.50;98.80;;;;;;6375303;22;20233;-86
2024/04/21 05:07:42;;;;;;;4.60;4.20;;;4.50;98.80;;;;;;6375384;22;20226;-86
2024/04/21 05:10:07;;;;;;;5.77;4.93;;;4.50;99.00;;;;;;6375662;22;20213;-86
2024/04/21 05:12:36;;;;;;;5.77;4.50;;;4.50;99.10;;;;;;6333604;22;20865;-86
2024/04/21 05:15:02;;;;;;;4.50;4.10;;;4.50;99.10;;;;;;6333679;22;20221;-86
2024/04/21 05:17:31;;;;;;;5.20;4.70;;;4.60;98.50;;;;;;6375782;22;20226;-86
2024/04/21 05:19:57;;;;;;;5.37;4.87;;;4.60;98.60;;;;;;6331754;22;20225;-85
2024/04/21 05:22:28;;;;;;;5.63;4.37;;;4.50;98.70;;;;;;6332844;22;20280;-86
2024/04/21 05:24:54;;;;;;;4.93;4.43;;;4.50;98.80;;;;;;6375265;22;20260;-86
2024/04/21 05:27:22;;;;;;;4.77;4.27;;;4.50;98.80;;;;;;6375171;22;20221;-86
2024/04/21 05:29:50;;;;;;;4.37;3.97;;;4.50;98.50;;;;;;6375952;22;20221;-85
2024/04/21 05:32:19;;;;;;;5.10;4.60;;;4.60;98.20;;;;;;6333124;22;20222;-86
2024/04/21 05:34:45;;;;;;;5.80;4.40;;;4.70;98.70;;;;;;6378767;22;20657;-86
2024/04/21 05:37:13;;;;;;;4.53;4.10;;;4.80;98.70;;;;;;6382503;22;20226;-86
2024/04/21 05:39:42;;;;;;;4.07;3.67;;;4.80;97.80;;;;;;6375483;22;20245;-86
2024/04/21 05:42:10;;;;;;;4.80;4.33;;;4.90;97.70;;;;;;6332012;22;20260;-86
2024/04/21 05:44:36;;;;;;;5.83;4.13;;;5.00;97.70;;;;;;6376338;22;20289;-86
2024/04/21 05:47:05;;;;;;;4.37;3.93;;;5.00;97.70;;;;;;6374766;22;20328;-86
2024/04/21 05:49:31;;;;;;;4.40;4.00;;;4.90;97.20;;;;;;6376147;22;20805;-85
2024/04/21 05:51:59;;;;;;;4.20;3.80;;;5.10;97.40;;;;;;6375325;22;20229;-86
2024/04/21 05:54:25;;;;;;;4.40;4.00;;;5.00;97.60;;;;;;6376258;22;20671;-86
2024/04/21 05:56:56;;;;;;;4.57;4.17;;;5.00;98.00;;;;;;6374235;22;20226;-86
2024/04/21 05:59:24;;;;;;;4.43;4.03;;;5.10;98.40;;;;;;6374619;22;20354;-86
2024/04/21 06:01:52;;;;;;;4.25;3.85;;;5.20;97.70;;;;;;6332732;22;20225;-85
2024/04/21 06:04:18;;;;;;;4.38;3.97;;;5.30;96.90;;;;;;6375107;22;20405;-86
2024/04/21 06:06:47;;;;;;;4.33;3.93;;;5.10;97.10;;;;;;6376195;22;20943;-86
2024/04/21 06:09:13;;;;;;;4.25;3.75;;;5.10;97.80;;;;;;6376249;22;20277;-88
2024/04/21 06:11:41;;;;;;;4.20;3.77;;;5.20;98.20;;;;;;6375695;22;20332;-90
2024/04/21 06:14:10;;;;;;;3.90;3.50;;;5.40;96.60;;;;;;6375926;22;20281;-88
2024/04/21 06:16:39;;;;;;;4.00;3.60;;;5.30;96.70;;;;;;6333123;22;20528;-86
2024/04/21 06:19:04;;;;;;;4.13;3.77;;;5.30;96.90;;;;;;6374059;22;20230;-87
2024/04/21 06:21:33;;;;;;;4.00;3.60;;;5.30;97.40;;;;;;6374729;22;20333;-88
2024/04/21 06:23:59;;;;;;;4.57;3.75;;;5.30;97.20;;;;;;6375184;22;20230;-88
2024/04/21 06:26:28;;;;;;;4.37;3.40;;;5.20;97.70;;;;;;6375225;22;20332;-88
2024/04/21 06:28:54;;;;;;;4.07;3.50;;;5.30;97.70;;;;;;6373439;22;20229;-88
2024/04/21 06:31:25;;;;;;;3.80;3.50;;;5.40;97.60;;;;;;6375502;22;20272;-88
2024/04/21 06:33:51;;;;;;;4.10;3.70;;;5.70;97.30;;;;;;6375713;22;20285;-88
2024/04/21 06:36:19;;;;;;;3.75;3.45;;;5.70;96.80;;;;;;6375097;22;20332;-88
2024/04/21 06:38:45;;;;;;;3.88;3.58;;;5.90;96.70;;;;;;6374832;22;20281;-88
2024/04/21 06:41:14;;;;;;;3.78;3.17;;;5.90;95.70;;;;;;6332689;22;20674;-88
2024/04/21 06:43:40;;;;;;;5.53;3.50;;;6.00;95.50;;;;;;6374803;22;20320;-88
2024/04/21 06:46:08;;;;;;;3.53;3.08;;;6.00;95.60;;;;;;6375630;22;20229;-88
2024/04/21 06:48:37;;;;;;;4.00;3.45;;;6.10;95.90;;;;;;6368357;22;20277;-88
2024/04/21 06:51:06;;;;;;;4.57;3.00;;;6.20;96.30;;;;;;6374535;22;20740;-88
2024/04/21 06:53:32;;;;;;;3.25;2.95;;;6.30;95.30;;;;;;6373975;22;20229;-88
2024/04/21 06:56:01;;;;;;;4.05;3.03;;;6.40;95.40;;;;;;6374917;22;20336;-89
2024/04/21 06:58:26;;;;;;;4.00;2.83;;;6.40;94.60;;;;;;6374825;22;20226;-89
2024/04/21 07:00:55;;;;;;;3.15;2.63;;;6.30;93.90;;;;;;6374609;22;20676;-89
2024/04/21 07:03:21;;;;;;;3.35;3.05;;;6.40;93.80;;;;;;6330793;22;20226;-89
2024/04/21 07:05:52;;;;;;;2.50;2.30;;;6.30;94.50;;;;;;6374631;22;20280;-88
2024/04/21 07:08:18;;;;;;;2.80;2.60;;;6.40;94.50;;;;;;6374625;22;20277;-89
2024/04/21 07:10:46;;;;;;;2.67;2.38;;;6.50;94.00;;;;;;6375511;22;20345;-88
2024/04/21 07:13:12;;;;;;;3.40;2.75;;;6.70;93.00;;;;;;6374097;22;20331;-89
2024/04/21 07:15:41;;;;;;;2.40;2.20;;;6.70;92.90;;;;;;6375461;22;20225;-88
2024/04/21 07:18:07;;;;;;;2.60;2.40;;;6.70;92.70;;;;;;6374566;22;20233;-89
2024/04/21 07:20:36;;;;;;;2.58;2.38;;;6.70;93.30;;;;;;6374428;22;20225;-88
2024/04/21 07:23:04;;;;;;;2.40;2.20;;;6.70;93.50;;;;;;6373519;22;20233;-88
2024/04/21 07:25:33;;;;;;;2.55;2.35;;;6.80;92.40;;;;;;6331471;22;20958;-88
2024/04/21 07:27:59;;;;;;;2.03;1.90;;;7.10;92.30;;;;;;6331479;22;20230;-88
2024/04/21 07:30:28;;;;;;;2.22;2.03;;;7.00;92.40;;;;;;6375109;22;20268;-88
2024/04/21 07:32:54;;;;;;;3.38;2.05;;;7.00;92.40;;;;;;6374711;22;20268;-90
2024/04/21 07:35:22;;;;;;;2.28;1.75;;;7.10;91.80;;;;;;6372151;22;20233;-89
2024/04/21 07:37:48;;;;;;;2.88;1.70;;;7.40;90.60;;;;;;6373085;22;20221;-88
2024/04/21 07:40:20;;;;;;;3.20;1.70;;;7.20;90.50;;;;;;6384357;22;20230;-90
2024/04/21 07:42:45;;;;;;;1.83;1.58;;;7.30;90.90;;;;;;6373202;22;20249;-89
2024/04/21 07:45:14;;;;;;;3.15;2.28;;;7.30;90.70;;;;;;6372958;22;20762;-91
2024/04/21 07:47:41;;;;;;;1.50;1.40;;;7.20;90.60;;;;;;6331440;22;20230;-91
2024/04/21 07:50:10;;;;;;;2.17;1.70;;;7.00;91.10;;;;;;6374509;22;20237;-90
2024/04/21 07:52:35;;;;;;;1.75;1.65;;;6.90;92.30;;;;;;6373044;22;20252;-91
2024/04/21 07:55:05;;;;;;;1.50;1.40;;;6.70;92.20;;;;;;6374011;22;20601;-91
2024/04/21 07:57:33;;;;;;;1.88;1.77;;;6.40;92.70;;;;;;6373206;22;20342;-89
2024/04/21 08:00:02;;;;;;;1.85;1.50;;;6.40;93.80;;;;;;6331344;22;20230;-89
2024/04/21 08:02:28;;;;;;;1.63;1.23;;;6.40;93.50;;;;;;6329896;22;20719;-91
2024/04/21 08:04:57;;;;;;;1.40;1.30;;;6.40;93.40;;;;;;6330579;22;20924;-87
2024/04/21 08:07:23;;;;;;;1.58;1.48;;;6.60;93.00;;;;;;6370759;22;20264;-89
2024/04/21 08:09:52;;;;;;;1.30;1.20;;;6.50;93.60;;;;;;6372079;22;20229;-88
2024/04/21 08:12:18;;;;;;;1.55;1.23;;;6.40;92.70;;;;;;6372487;22;20370;-87
2024/04/21 08:14:49;;;;;;;1.20;1.10;;;6.20;93.70;;;;;;6328047;22;20225;-84
2024/04/21 08:17:15;;;;;;;2.75;1.30;;;6.10;93.80;;;;;;6371074;22;20233;-84
2024/04/21 08:19:43;;;;;;;2.03;1.50;;;6.30;94.60;;;;;;6371106;22;20676;-87
2024/04/21 08:22:09;;;;;;;1.52;1.08;;;6.40;94.50;;;;;;6372597;22;20297;-87
2024/04/21 08:24:39;;;;;;;1.90;1.40;;;6.60;93.80;;;;;;6372741;22;20328;-88
2024/04/21 08:27:05;;;;;;;1.52;1.40;;;6.70;94.30;;;;;;6373416;22;20333;-87
2024/04/21 08:29:33;;;;;;;1.20;1.10;;;7.10;92.70;;;;;;6372298;22;20240;-85
2024/04/21 08:32:02;;;;;;;1.45;1.35;;;7.20;91.20;;;;;;6371511;22;20668;-86
2024/04/21 08:34:33;;;;;;;1.40;1.30;;;7.50;91.60;;;;;;6372020;22;20770;-85
2024/04/21 08:36:59;;;;;;;1.77;1.67;;;7.40;91.00;;;;;;6329775;22;20229;-87
2024/04/21 08:39:27;;;;;;;1.42;1.25;;;8.00;90.70;;;;;;6373378;22;20273;-86
2024/04/21 08:41:55;;;;;;;3.50;1.65;;;8.10;90.60;;;;;;6372037;22;20816;-86
2024/04/21 08:44:25;;;;;;;1.55;1.20;;;8.10;89.90;;;;;;6373183;22;20333;-87
2024/04/21 08:46:51;;;;;;;1.85;1.75;;;7.90;90.20;;;;;;6370999;22;20284;-88
2024/04/21 08:49:23;;;;;;;2.17;1.55;;;7.80;90.60;;;;;;6373037;22;20293;-87
2024/04/21 08:51:50;;;;;;;1.23;1.13;;;7.70;89.00;;;;;;6372046;22;20233;-89
2024/04/21 08:54:22;;;;;;;1.63;1.30;;;7.60;87.60;;;;;;6367278;22;20973;-87
2024/04/21 08:56:51;;;;;;;2.13;1.38;;;7.60;90.20;;;;;;6327987;22;20222;-88
2024/04/21 08:59:24;;;;;;;2.30;1.60;;;7.70;85.50;;;;;;6330166;22;20268;-88
2024/04/21 09:01:51;;;;;;;2.22;1.40;;;8.00;84.80;;;;;;6372855;22;20290;-88
2024/04/21 09:04:23;;;;;;;1.33;1.08;;;8.20;84.50;;;;;;6372215;22;20263;-88
2024/04/21 09:06:52;;;;;;;3.28;1.40;;;8.40;82.50;;;;;;6371709;22;20575;-89
2024/04/21 09:09:21;;;;;;;1.33;1.20;;;8.70;75.60;;;;;;6373313;22;20272;-88
2024/04/21 09:11:48;;;;;;;1.65;1.40;;;8.90;73.80;;;;;;6373520;22;20241;-87
2024/04/21 09:14:16;;;;;;;1.55;1.30;;;9.90;57.50;;;;;;6371743;22;20277;-88
2024/04/21 09:16:43;;;;;;;1.98;1.10;;;11.10;54.30;;;;;;6330622;22;20229;-88
2024/04/21 09:19:14;;;;;;;2.58;1.38;;;11.60;35.10;;;;;;6374241;22;20310;-90
2024/04/21 09:21:43;;;;;;;3.95;1.73;;;10.00;41.30;;;;;;6374279;22;20345;-89
2024/04/21 09:24:15;;;;;;;1.92;1.42;;;8.40;59.20;;;;;;6332603;22;20272;-87
2024/04/21 09:26:42;;;;;;;1.92;1.50;;;7.30;77.60;;;;;;6328985;22;20229;-87
2024/04/21 09:29:11;;;;;;;2.80;1.95;;;6.30;86.70;;;;;;6372706;22;20592;-89
2024/04/21 09:31:39;;;;;;;4.43;1.73;;;5.70;90.70;;;;;;6375804;22;20369;-89
2024/04/21 09:34:07;;;;;;;2.13;1.90;;;5.20;92.70;;;;;;6374803;22;20273;-87
2024/04/21 09:36:36;;;;;;;4.80;2.30;;;5.00;94.60;;;;;;6375833;22;20301;-88
2024/04/21 09:39:07;;;;;;;4.78;2.70;;;4.80;95.50;;;;;;6373937;22;20329;-86
2024/04/21 09:41:36;;;;;;;5.30;2.20;;;4.80;96.80;;;;;;6331995;22;20340;-87
2024/04/21 09:44:03;;;;;;;4.57;2.40;;;4.90;96.70;;;;;;6375844;22;20276;-87
2024/04/21 09:46:33;;;;;;;2.45;2.08;;;4.90;97.70;;;;;;6375581;22;20268;-85
2024/04/21 09:49:02;;;;;;;4.47;2.28;;;4.90;97.70;;;;;;6375536;22;20726;-89
2024/04/21 09:51:33;;;;;;;1.95;1.85;;;5.00;97.50;;;;;;6375254;22;20916;-90
2024/04/21 09:54:01;;;;;;;2.88;2.08;;;5.00;97.40;;;;;;6376017;22;20245;-85
2024/04/21 09:56:40;;;;;;;3.80;2.03;;;5.10;97.40;;;;;;6370111;22;20225;-86
2024/04/21 09:59:09;;;;;;;2.63;2.20;;;5.10;97.70;;;;;;6373201;22;20338;-86
2024/04/21 10:01:40;;;;;;;2.80;2.58;;;5.20;97.80;;;;;;6370981;22;20324;-86
2024/04/21 10:04:15;;;;;;;2.70;2.15;;;5.30;96.70;;;;;;6373904;22;20320;-87
2024/04/21 10:06:48;;;;;;;3.20;1.95;;;5.40;97.10;;;;;;6374887;22;20276;-88
2024/04/21 10:09:16;;;;;;;2.88;2.08;;;5.60;96.80;;;;;;6334124;22;20233;-87
2024/04/21 10:11:48;;;;;;;2.90;1.67;;;5.70;96.80;;;;;;6331774;22;20229;-88
2024/04/21 10:14:15;;;;;;;2.78;1.80;;;5.70;96.20;;;;;;6375013;22;20230;-87
2024/04/21 10:16:44;;;;;;;2.55;1.52;;;5.80;96.10;;;;;;6375298;22;20268;-88
2024/04/21 10:19:09;;;;;;;2.53;1.70;;;5.90;95.80;;;;;;6374656;22;20350;-89
2024/04/21 10:21:38;;;;;;;2.97;1.80;;;6.00;95.30;;;;;;6330697;22;21022;-88
2024/04/21 10:24:07;;;;;;;2.60;1.90;;;6.30;95.30;;;;;;6373075;22;20260;-89
2024/04/21 10:26:36;;;;;;;3.15;2.08;;;6.50;94.60;;;;;;6375980;22;21000;-85
2024/04/21 10:29:12;;;;;;;2.55;1.80;;;6.50;94.60;;;;;;6374072;22;21149;-86
2024/04/21 10:31:41;;;;;;;3.45;2.20;;;6.70;94.00;;;;;;6373582;22;20570;-89
2024/04/21 10:34:09;;;;;;;2.28;1.75;;;6.70;92.50;;;;;;6374706;22;20271;-88
2024/04/21 10:36:42;;;;;;;2.85;2.00;;;6.90;92.80;;;;;;6333191;22;20324;-90
2024/04/21 10:39:08;;;;;;;2.70;1.83;;;7.10;92.70;;;;;;6375217;22;20321;-88
2024/04/21 10:41:44;;;;;;;3.20;1.92;;;7.50;90.70;;;;;;6374003;22;20217;-89
2024/04/21 10:44:12;;;;;;;3.58;2.13;;;7.30;91.00;;;;;;6374261;22;20213;-89
2024/04/21 10:46:41;;;;;;;1.92;1.65;;;7.30;91.70;;;;;;6374054;22;20230;-87
2024/04/21 10:49:08;;;;;;;2.83;1.70;;;7.30;90.10;;;;;;6331111;22;20241;-87
2024/04/21 10:51:36;;;;;;;2.05;1.50;;;6.90;91.20;;;;;;6374274;22;20831;-88
2024/04/21 10:54:03;;;;;;;2.58;1.48;;;6.80;92.10;;;;;;6375296;22;20610;-88
2024/04/21 10:56:31;;;;;;;1.70;1.60;;;6.70;92.70;;;;;;6373475;22;20273;-87
2024/04/21 10:58:57;;;;;;;2.42;1.60;;;6.60;92.90;;;;;;6374303;22;20328;-88
2024/04/21 11:01:30;;;;;;;1.65;1.55;;;6.60;93.30;;;;;;6374085;22;20730;-87
2024/04/21 11:03:57;;;;;;;1.45;1.30;;;6.60;93.20;;;;;;6374896;22;20225;-88
2024/04/21 11:06:27;;;;;;;2.95;1.70;;;6.50;92.90;;;;;;6331984;22;20271;-88
2024/04/21 11:08:52;;;;;;;1.38;1.20;;;6.50;93.20;;;;;;6374020;22;20284;-87
2024/04/21 11:11:21;;;;;;;1.73;1.63;;;6.60;93.10;;;;;;6373311;22;20342;-87
2024/04/21 11:13:47;;;;;;;1.42;1.20;;;6.70;93.10;;;;;;6374623;22;20740;-86
2024/04/21 11:16:16;;;;;;;1.30;1.20;;;6.50;92.70;;;;;;6374471;22;20225;-86
2024/04/21 11:18:44;;;;;;;1.27;1.00;;;6.60;92.70;;;;;;6375224;22;20339;-89
2024/04/21 11:21:13;;;;;;;1.15;1.10;;;6.40;93.10;;;;;;6374009;22;20281;-87
2024/04/21 11:23:39;;;;;;;1.10;1.10;;;6.20;93.40;;;;;;6374386;22;20221;-89
2024/04/21 11:26:09;;;;;;;6.95;2.53;;;6.00;94.00;;;;;;6375067;22;20729;-88
2024/04/21 11:28:35;;;;;;;1.42;1.30;;;6.00;95.00;;;;;;6374723;22;20222;-88
2024/04/21 11:31:04;;;;;;;34.70;12.40;;;6.10;96.80;;;;;;6373555;22;20226;-88
2024/04/21 11:33:30;;;;;;;2.05;1.13;;;6.20;99.90;;;;;;6329726;22;20654;-88
2024/04/21 11:36:03;;;;;;;1.50;1.40;;;6.20;94.60;;;;;;6373999;22;20229;-88
2024/04/21 11:38:30;;;;;;;2.28;1.38;;;6.10;94.50;;;;;;6374221;22;20225;-88
2024/04/21 11:40:58;;;;;;;2.72;2.30;;;5.90;95.30;;;;;;6329859;22;20229;-86
2024/04/21 11:43:26;;;;;;;2.63;1.90;;;5.70;95.80;;;;;;6328855;22;20256;-86
2024/04/21 11:45:54;;;;;;;5.22;3.20;;;5.50;95.70;;;;;;6372881;22;20238;-86
2024/04/21 11:48:20;;;;;;;1.93;1.70;;;5.40;96.60;;;;;;6330059;22;20229;-86
2024/04/21 11:50:49;;;;;;;2.00;1.50;;;5.30;95.80;;;;;;6373060;22;20217;-88
2024/04/21 11:53:19;;;;;;;1.80;1.70;;;5.10;95.90;;;;;;6372345;22;20245;-86
2024/04/21 11:55:48;;;;;;;1.53;1.20;;;5.00;96.80;;;;;;6373756;22;20285;-86
2024/04/21 11:58:17;;;;;;;1.83;1.27;;;5.00;96.60;;;;;;6374059;22;20328;-86
2024/04/21 12:00:46;;;;;;;1.60;1.47;;;4.90;97.40;;;;;;6373091;22;20229;-86
2024/04/21 12:03:11;;;;;;;1.53;1.43;;;4.70;98.00;;;;;;6373533;22;20799;-87
2024/04/21 12:05:40;;;;;;;1.33;1.20;;;4.70;97.60;;;;;;6373388;22;20251;-86
2024/04/21 12:08:06;;;;;;;1.67;1.57;;;4.50;97.30;;;;;;6372900;22;20225;-86
2024/04/21 12:10:37;;;;;;;2.53;1.40;;;4.50;96.90;;;;;;6373149;22;20226;-86
2024/04/21 12:13:03;;;;;;;1.40;1.30;;;4.40;96.90;;;;;;6373552;22;20321;-87
2024/04/21 12:15:32;;;;;;;2.60;1.37;;;4.30;97.00;;;;;;6373593;22;20267;-86
2024/04/21 12:18:05;;;;;;;1.87;1.50;;;4.20;96.90;;;;;;6373365;22;20273;-87
2024/04/21 12:20:34;;;;;;;1.80;1.30;;;4.20;97.60;;;;;;6372865;22;20229;-86
2024/04/21 12:23:02;;;;;;;1.70;1.50;;;4.10;97.30;;;;;;6373127;22;20229;-86
2024/04/21 12:25:30;;;;;;;1.33;1.10;;;4.10;97.30;;;;;;6373073;22;20324;-86
2024/04/21 12:27:59;;;;;;;1.27;1.17;;;4.00;97.50;;;;;;6373972;22;20289;-86
2024/04/21 12:30:28;;;;;;;1.20;1.10;;;4.00;98.10;;;;;;6372674;22;20221;-86
2024/04/21 12:32:54;;;;;;;2.23;0.90;;;4.10;98.40;;;;;;6373117;22;20812;-87
2024/04/21 12:35:23;;;;;;;1.30;1.20;;;4.20;98.30;;;;;;6369947;22;20908;-85
2024/04/21 12:37:49;;;;;;;1.40;1.30;;;4.40;98.00;;;;;;6373884;22;20288;-85
2024/04/21 12:40:17;;;;;;;1.50;1.33;;;4.40;98.10;;;;;;6330405;22;20768;-85
2024/04/21 12:42:44;;;;;;;1.20;1.10;;;4.60;97.60;;;;;;6373325;22;20237;-85
2024/04/21 12:45:21;;;;;;;1.57;1.27;;;4.70;97.20;;;;;;6372785;22;20968;-85
2024/04/21 12:47:48;;;;;;;1.40;1.23;;;4.70;97.20;;;;;;6371750;22;20344;-86
2024/04/21 12:50:16;;;;;;;1.77;1.20;;;4.60;97.50;;;;;;6373494;22;20292;-87
2024/04/21 12:52:42;;;;;;;1.30;1.20;;;4.80;97.40;;;;;;6372668;22;20225;-85
2024/04/21 12:55:11;;;;;;;1.27;1.10;;;4.80;97.80;;;;;;6372986;22;20268;-87
2024/04/21 12:57:37;;;;;;;1.37;1.27;;;4.90;98.10;;;;;;6374504;22;20237;-86
2024/04/21 13:00:07;;;;;;;0.97;0.97;;;5.00;97.70;;;;;;6375745;22;20221;-87
2024/04/21 13:02:38;;;;;;;1.30;1.20;;;5.10;97.70;;;;;;6333210;22;20225;-87